Time;durP1;ratioP1;P1;durP2;ratioP2;P2;SDS_P1;SDS_P2;PMS_P1;PMS_P2;Temp;Humidity;BMP_temperature;BMP_pressure;BME280_temperature;BME280_humidity;BME280_pressure;Samples;Min_cycle;Max_cycle;Signal;HPM_P1;HPM_P2
2023/03/16 00:00:52;;;;;;;;;5.00;5.00;;;;;20.54;53.69;101121.21;110023;1266;18622;-40
2023/03/16 00:03:20;;;;;;;;;5.00;4.00;;;;;20.54;53.88;101121.21;110067;1250;20558;-40
2023/03/16 00:05:47;;;;;;;;;2.00;2.00;;;;;20.54;53.85;101121.60;110041;1264;22774;-40
2023/03/16 00:08:15;;;;;;;;;4.00;4.00;;;;;20.54;53.72;101122.17;109938;1253;19649;-40
2023/03/16 00:10:45;;;;;;;;;4.00;2.33;;;;;20.54;53.62;101127.21;109923;1259;18817;-40
2023/03/16 00:13:13;;;;;;;;;4.00;4.00;;;;;20.55;53.81;101127.35;110048;1266;21906;-39
2023/03/16 00:15:40;;;;;;;;;4.00;4.00;;;;;20.54;53.61;101132.73;110016;1266;18492;-45
2023/03/16 00:18:07;;;;;;;;;4.00;4.00;;;;;20.54;53.60;101131.98;110037;1253;20297;-40
2023/03/16 00:20:35;;;;;;;;;4.00;2.00;;;;;20.53;53.65;101134.39;110021;1250;19405;-39
2023/03/16 00:23:02;;;;;;;;;2.00;2.00;;;;;20.54;53.61;101126.54;110008;1266;20172;-40
2023/03/16 00:25:32;;;;;;;;;4.00;4.00;;;;;20.53;53.70;101125.84;109993;1266;19994;-42
2023/03/16 00:28:02;;;;;;;;;3.00;3.00;;;;;20.53;53.76;101125.14;109960;1266;20981;-41
2023/03/16 00:30:30;;;;;;;;;4.00;3.00;;;;;20.53;53.54;101126.13;109981;1260;22245;-40
2023/03/16 00:32:57;;;;;;;;;2.67;2.67;;;;;20.52;53.76;101123.94;109979;1253;22212;-40
2023/03/16 00:35:25;;;;;;;;;5.50;4.00;;;;;20.53;53.80;101124.59;109962;1266;22270;-41
2023/03/16 00:37:56;;;;;;;;;3.00;3.00;;;;;20.52;53.60;101123.95;109963;1266;19903;-38
2023/03/16 00:40:23;;;;;;;;;4.00;4.00;;;;;20.52;53.63;101127.04;110037;1266;22236;-39
2023/03/16 00:42:51;;;;;;;;;2.00;2.00;;;;;20.52;53.62;101123.23;110080;1266;19262;-39
2023/03/16 00:45:18;;;;;;;;;2.00;2.00;;;;;20.53;53.74;101124.48;110001;1254;21999;-39
2023/03/16 00:47:46;;;;;;;;;4.00;4.00;;;;;20.52;53.72;101121.45;110043;1266;18632;-41
2023/03/16 00:50:13;;;;;;;;;4.00;3.00;;;;;20.52;53.65;101122.31;110056;1266;21165;-39
2023/03/16 00:52:41;;;;;;;;;3.00;2.00;;;;;20.52;53.58;101115.50;110016;1265;18464;-39
2023/03/16 00:55:08;;;;;;;;;4.00;4.00;;;;;20.51;53.60;101118.80;110029;1251;22239;-40
2023/03/16 00:57:36;;;;;;;;;2.00;2.00;;;;;20.51;53.49;101116.84;110031;1266;20833;-40
2023/03/16 01:00:11;;;;;;;;;4.00;4.00;;;;;20.50;53.68;101112.17;110046;1266;18500;-40
2023/03/16 01:02:39;;;;;;;;;2.00;2.00;;;;;20.51;53.63;101113.06;109922;1266;20046;-40
2023/03/16 01:05:06;;;;;;;;;4.00;4.00;;;;;20.51;53.49;101117.26;109934;1266;19414;-39
2023/03/16 01:07:35;;;;;;;;;2.00;2.00;;;;;20.51;53.45;101116.88;110066;1250;19718;-39
2023/03/16 01:10:02;;;;;;;;;4.00;2.00;;;;;20.50;53.67;101121.50;110057;1250;19963;-40
2023/03/16 01:12:30;;;;;;;;;4.00;4.00;;;;;20.50;53.67;101122.39;110040;1266;19488;-39
2023/03/16 01:14:57;;;;;;;;;4.00;4.00;;;;;20.49;53.33;101125.59;110054;1266;18588;-40
2023/03/16 01:17:24;;;;;;;;;4.00;3.00;;;;;20.48;53.42;101126.58;110017;1254;21857;-40
2023/03/16 01:19:52;;;;;;;;;2.00;2.00;;;;;20.50;53.44;101134.06;110033;1250;20757;-40
2023/03/16 01:22:20;;;;;;;;;2.00;2.00;;;;;20.49;53.65;101137.20;109927;1266;18534;-40
2023/03/16 01:24:47;;;;;;;;;4.00;4.00;;;;;20.49;53.52;101138.14;110049;1266;21369;-40
2023/03/16 01:27:15;;;;;;;;;4.00;4.00;;;;;20.50;53.53;101142.40;110060;1266;20071;-40
2023/03/16 01:29:43;;;;;;;;;4.00;4.00;;;;;20.49;53.44;101137.70;110064;1250;20947;-40
2023/03/16 01:32:11;;;;;;;;;4.00;4.00;;;;;20.50;53.35;101142.91;109954;1266;19943;-40
2023/03/16 01:34:38;;;;;;;;;2.00;2.00;;;;;20.49;53.53;101147.00;110025;1252;22694;-40
2023/03/16 01:37:05;;;;;;;;;4.00;4.00;;;;;20.49;53.37;101146.83;110053;1266;18404;-40
2023/03/16 01:39:33;;;;;;;;;4.00;4.00;;;;;20.49;53.47;101146.09;110060;1250;18693;-40
2023/03/16 01:42:00;;;;;;;;;3.00;3.00;;;;;20.49;53.40;101148.50;110081;1258;22890;-40
2023/03/16 01:44:29;;;;;;;;;5.00;4.00;;;;;20.48;53.60;101147.83;110084;1266;19625;-40
2023/03/16 01:46:57;;;;;;;;;5.00;4.00;;;;;20.48;53.49;101146.90;110058;1266;18629;-40
2023/03/16 01:49:24;;;;;;;;;2.00;2.00;;;;;20.49;53.37;101144.35;110040;1266;21056;-40
2023/03/16 01:51:52;;;;;;;;;4.00;2.50;;;;;20.48;53.52;101148.02;110045;1252;22175;-41
2023/03/16 01:54:19;;;;;;;;;4.00;2.00;;;;;20.48;53.38;101150.91;110011;1266;20015;-40
2023/03/16 01:56:46;;;;;;;;;4.00;4.00;;;;;20.48;53.39;101153.47;110001;1266;21554;-39
2023/03/16 01:59:14;;;;;;;;;2.00;2.00;;;;;20.47;53.65;101152.65;109925;1250;19592;-39
2023/03/16 02:01:42;;;;;;;;;3.33;3.33;;;;;20.48;53.55;101152.59;109997;1266;18652;-41
2023/03/16 02:04:09;;;;;;;;;2.00;2.00;;;;;20.48;53.47;101157.48;110024;1250;22363;-41
2023/03/16 02:06:36;;;;;;;;;4.00;3.00;;;;;20.47;53.44;101151.23;110059;1253;19708;-42
2023/03/16 02:09:04;;;;;;;;;4.00;4.00;;;;;20.48;53.47;101158.27;110058;1266;19847;-40
2023/03/16 02:11:32;;;;;;;;;2.00;2.00;;;;;20.48;53.46;101157.86;110012;1254;20793;-40
2023/03/16 02:13:59;;;;;;;;;4.00;3.50;;;;;20.47;53.53;101159.05;110023;1266;19645;-38
2023/03/16 02:16:27;;;;;;;;;2.00;2.00;;;;;20.47;53.47;101160.48;110053;1250;19993;-41
2023/03/16 02:18:54;;;;;;;;;2.50;2.50;;;;;20.47;53.32;101161.81;110020;1266;20717;-39
2023/03/16 02:21:24;;;;;;;;;2.00;2.00;;;;;20.47;53.44;101164.47;110034;1266;20924;-40
2023/03/16 02:23:52;;;;;;;;;3.00;2.00;;;;;20.47;53.52;101167.23;110024;1266;22299;-40
2023/03/16 02:26:21;;;;;;;;;2.00;2.00;;;;;20.47;53.25;101168.13;110034;1266;20753;-40
2023/03/16 02:28:49;;;;;;;;;4.50;3.00;;;;;20.46;53.59;101169.09;110031;1266;21513;-40
2023/03/16 02:31:17;;;;;;;;;2.00;2.00;;;;;20.46;53.40;101172.52;110019;1266;22272;-40
2023/03/16 02:33:44;;;;;;;;;4.00;4.00;;;;;20.46;53.45;101172.21;110021;1266;20913;-40
2023/03/16 02:36:12;;;;;;;;;2.00;2.00;;;;;20.46;53.18;101176.38;110047;1252;22751;-41
2023/03/16 02:38:40;;;;;;;;;7.00;4.00;;;;;20.45;53.28;101173.39;110034;1260;20009;-40
2023/03/16 02:41:07;;;;;;;;;2.00;2.00;;;;;20.46;53.35;101178.23;110035;1266;21590;-40
2023/03/16 02:43:35;;;;;;;;;4.00;4.00;;;;;20.45;53.30;101176.09;110026;1254;19649;-41
2023/03/16 02:46:03;;;;;;;;;4.00;4.00;;;;;20.45;53.18;101181.15;110040;1252;20121;-41
2023/03/16 02:48:31;;;;;;;;;3.00;3.00;;;;;20.45;53.25;101183.54;110042;1253;20792;-41
2023/03/16 02:50:59;;;;;;;;;4.00;2.00;;;;;20.45;53.42;101185.40;110018;1259;18524;-39
2023/03/16 02:53:27;;;;;;;;;3.00;3.00;;;;;20.45;53.21;101184.80;110011;1266;20026;-39
2023/03/16 02:55:54;;;;;;;;;2.00;2.00;;;;;20.45;53.32;101190.81;109945;1254;22223;-39
2023/03/16 02:58:21;;;;;;;;;4.00;4.00;;;;;20.44;53.21;101192.70;110001;1266;20594;-40
2023/03/16 03:00:49;;;;;;;;;4.50;2.00;;;;;20.45;53.37;101194.25;110031;1266;20021;-39
2023/03/16 03:03:17;;;;;;;;;4.00;2.00;;;;;20.45;53.41;101193.53;110020;1266;22803;-40
2023/03/16 03:05:44;;;;;;;;;2.00;2.00;;;;;20.44;53.46;101196.54;110030;1266;19601;-39
2023/03/16 03:08:12;;;;;;;;;2.50;2.00;;;;;20.44;53.22;101196.94;109933;1266;20402;-39
2023/03/16 03:10:39;;;;;;;;;2.00;2.00;;;;;20.44;53.46;101189.08;109955;1260;19632;-39
2023/03/16 03:13:07;;;;;;;;;4.00;2.00;;;;;20.43;53.35;101186.05;110019;1266;22775;-40
2023/03/16 03:15:34;;;;;;;;;4.00;4.00;;;;;20.44;53.31;101194.70;109999;1250;18608;-40
2023/03/16 03:18:02;;;;;;;;;2.50;2.00;;;;;20.44;53.26;101192.36;109987;1250;21054;-40
2023/03/16 03:20:30;;;;;;;;;3.00;2.50;;;;;20.44;53.20;101194.73;109917;1254;19820;-40
2023/03/16 03:22:57;;;;;;;;;4.00;4.00;;;;;20.43;53.21;101196.40;109925;1266;20017;-40
2023/03/16 03:25:25;;;;;;;;;2.00;2.00;;;;;20.43;53.19;101199.66;109948;1253;20792;-42
2023/03/16 03:27:53;;;;;;;;;4.00;4.00;;;;;20.44;53.23;101201.65;109886;1266;18737;-40
2023/03/16 03:30:20;;;;;;;;;2.00;2.00;;;;;20.42;53.38;101202.70;110019;1266;18852;-39
2023/03/16 03:32:48;;;;;;;;;2.00;2.00;;;;;20.44;53.15;101208.73;109896;1266;21853;-40
2023/03/16 03:35:15;;;;;;;;;2.50;2.50;;;;;20.43;53.19;101202.29;109936;1250;22123;-40
2023/03/16 03:37:43;;;;;;;;;3.00;3.00;;;;;20.43;53.16;101200.08;109914;1266;19894;-39
2023/03/16 03:40:10;;;;;;;;;3.00;3.00;;;;;20.43;53.10;101205.19;109988;1266;20686;-42
2023/03/16 03:42:38;;;;;;;;;2.00;2.00;;;;;20.42;53.16;101203.52;109908;1266;22446;-39
2023/03/16 03:45:05;;;;;;;;;2.00;2.00;;;;;20.42;53.19;101199.33;109923;1250;18757;-39
2023/03/16 03:47:33;;;;;;;;;2.00;2.00;;;;;20.42;53.21;101201.50;110015;1253;22354;-39
2023/03/16 03:50:00;;;;;;;;;5.50;4.00;;;;;20.41;53.46;101199.02;110059;1266;18450;-40
2023/03/16 03:52:28;;;;;;;;;2.00;2.00;;;;;20.41;53.15;101204.98;110066;1266;18650;-39
2023/03/16 03:54:55;;;;;;;;;2.00;2.00;;;;;20.43;53.19;101207.36;110023;1253;22219;-39
2023/03/16 03:57:23;;;;;;;;;2.33;2.33;;;;;20.42;52.95;101204.06;110050;1266;18436;-39
2023/03/16 03:59:50;;;;;;;;;2.00;2.00;;;;;20.41;53.20;101205.55;110016;1266;19869;-39
2023/03/16 04:02:17;;;;;;;;;3.00;2.00;;;;;20.42;53.09;101207.84;110025;1266;20771;-40
2023/03/16 04:04:45;;;;;;;;;4.00;4.00;;;;;20.42;53.01;101210.39;110027;1253;22269;-40
2023/03/16 04:07:12;;;;;;;;;4.00;4.00;;;;;20.41;53.13;101213.73;110021;1266;20060;-40
2023/03/16 04:09:40;;;;;;;;;4.00;4.00;;;;;20.41;53.14;101212.80;110023;1266;20738;-40
2023/03/16 04:12:08;;;;;;;;;2.33;2.33;;;;;20.40;53.38;101210.58;110030;1266;19945;-40
2023/03/16 04:14:35;;;;;;;;;4.00;4.00;;;;;20.41;53.23;101209.60;110036;1266;18662;-40
2023/03/16 04:17:03;;;;;;;;;4.00;4.00;;;;;20.40;53.19;101206.21;110039;1253;20798;-39
2023/03/16 04:19:31;;;;;;;;;4.00;4.00;;;;;20.40;53.00;101211.63;110080;1266;21211;-44
2023/03/16 04:21:58;;;;;;;;;2.00;2.00;;;;;20.40;53.20;101212.80;109971;1251;20036;-40
2023/03/16 04:24:25;;;;;;;;;2.00;2.00;;;;;20.40;53.32;101213.14;109940;1266;19448;-40
2023/03/16 04:26:53;;;;;;;;;4.00;4.00;;;;;20.40;53.22;101213.00;110030;1253;20004;-41
2023/03/16 04:29:21;;;;;;;;;2.00;2.00;;;;;20.40;53.18;101213.17;110036;1266;18861;-40
2023/03/16 04:31:49;;;;;;;;;3.50;3.50;;;;;20.40;53.00;101212.06;110023;1250;21217;-40
2023/03/16 04:34:17;;;;;;;;;3.00;2.00;;;;;20.39;52.89;101211.77;110035;1266;22800;-40
2023/03/16 04:36:44;;;;;;;;;4.00;4.00;;;;;20.40;53.19;101212.29;110019;1250;20309;-40
2023/03/16 04:39:12;;;;;;;;;3.50;3.50;;;;;20.39;53.06;101211.42;110007;1266;21083;-41
2023/03/16 04:41:39;;;;;;;;;2.50;2.50;;;;;20.39;53.00;101212.11;109919;1266;19600;-41
2023/03/16 04:44:07;;;;;;;;;4.00;4.00;;;;;20.38;53.02;101209.04;109994;1266;20039;-41
2023/03/16 04:46:34;;;;;;;;;3.00;3.00;;;;;20.39;53.02;101215.54;110021;1250;19325;-41
2023/03/16 04:49:02;;;;;;;;;2.00;2.00;;;;;20.39;53.13;101214.86;110008;1266;22320;-40
2023/03/16 04:51:30;;;;;;;;;3.00;3.00;;;;;20.38;53.10;101210.23;110018;1253;18490;-40
2023/03/16 04:53:57;;;;;;;;;4.00;2.00;;;;;20.39;53.00;101212.57;110075;1266;20681;-41
2023/03/16 04:56:25;;;;;;;;;2.00;2.00;;;;;20.39;52.93;101214.14;110020;1266;18582;-40
2023/03/16 04:58:52;;;;;;;;;2.00;2.00;;;;;20.39;53.15;101216.69;110035;1266;20480;-40
2023/03/16 05:01:19;;;;;;;;;3.00;3.00;;;;;20.39;53.13;101220.16;110015;1266;19347;-40
2023/03/16 05:03:48;;;;;;;;;4.00;4.00;;;;;20.38;53.10;101224.83;110040;1266;19727;-40
2023/03/16 05:06:16;;;;;;;;;4.00;4.00;;;;;20.37;53.03;101230.88;110023;1260;23211;-42
2023/03/16 05:08:43;;;;;;;;;4.00;4.00;;;;;20.38;53.03;101234.40;110055;1259;20736;-40
2023/03/16 05:11:11;;;;;;;;;4.00;3.00;;;;;20.39;52.93;101237.35;110032;1266;19817;-40
2023/03/16 05:13:38;;;;;;;;;3.50;3.50;;;;;20.37;52.77;101237.92;110056;1252;22825;-41
2023/03/16 05:16:06;;;;;;;;;5.00;4.00;;;;;20.38;52.84;101238.06;110036;1266;21025;-40
2023/03/16 05:18:33;;;;;;;;;4.00;4.00;;;;;20.37;52.82;101237.08;110019;1253;21320;-40
2023/03/16 05:21:00;;;;;;;;;4.00;4.00;;;;;20.38;52.73;101236.05;110005;1266;18902;-40
2023/03/16 05:23:28;;;;;;;;;5.00;4.00;;;;;20.37;52.64;101235.03;110031;1266;20507;-40
2023/03/16 05:25:58;;;;;;;;;4.00;4.00;;;;;20.36;52.75;101232.25;110026;1260;19744;-40
2023/03/16 05:28:26;;;;;;;;;3.00;2.00;;;;;20.36;52.52;101232.45;110004;1266;18722;-41
2023/03/16 05:30:53;;;;;;;;;4.00;4.00;;;;;20.37;52.69;101230.20;110024;1259;19370;-40
2023/03/16 05:33:21;;;;;;;;;2.00;2.00;;;;;20.37;52.59;101230.67;110059;1254;19644;-40
2023/03/16 05:35:49;;;;;;;;;4.00;4.00;;;;;20.38;52.47;101233.02;110018;1266;20239;-40
2023/03/16 05:38:17;;;;;;;;;4.00;4.00;;;;;20.36;52.41;101242.01;110042;1253;20583;-41
2023/03/16 05:40:45;;;;;;;;;3.50;2.00;;;;;20.36;52.29;101243.30;110024;1266;19840;-40
2023/03/16 05:43:12;;;;;;;;;2.00;2.00;;;;;20.37;52.29;101246.70;110047;1266;22220;-40
2023/03/16 05:45:39;;;;;;;;;5.00;4.00;;;;;20.35;52.33;101251.41;110012;1258;20842;-40
2023/03/16 05:48:07;;;;;;;;;4.00;4.00;;;;;20.36;52.37;101257.70;109991;1250;19832;-41
2023/03/16 05:50:34;;;;;;;;;5.00;4.00;;;;;20.36;52.21;101259.27;110021;1254;22677;-40
2023/03/16 05:53:03;;;;;;;;;3.50;3.50;;;;;20.38;52.22;101265.83;110038;1252;20865;-41
2023/03/16 05:55:30;;;;;;;;;5.00;5.00;;;;;20.40;52.44;101266.45;110016;1266;18514;-41
2023/03/16 05:57:58;;;;;;;;;3.00;2.00;;;;;20.42;52.13;101259.60;110014;1266;20110;-41
2023/03/16 06:00:26;;;;;;;;;4.00;2.50;;;;;20.43;52.11;101256.98;110010;1266;20740;-41
2023/03/16 06:02:53;;;;;;;;;4.00;4.00;;;;;20.45;51.87;101259.29;110051;1266;18367;-41
2023/03/16 06:05:23;;;;;;;;;2.00;2.00;;;;;20.46;52.00;101266.23;109998;1250;20010;-39
2023/03/16 06:07:50;;;;;;;;;2.00;2.00;;;;;20.49;51.96;101263.00;110004;1266;19356;-40
2023/03/16 06:10:18;;;;;;;;;5.00;5.00;;;;;20.57;51.95;101266.41;110028;1266;22373;-41
2023/03/16 06:12:45;;;;;;;;;4.00;4.00;;;;;20.63;52.02;101269.89;110059;1266;20169;-39
2023/03/16 06:15:13;;;;;;;;;4.00;4.00;;;;;20.67;52.27;101270.74;110015;1250;21057;-41
2023/03/16 06:17:41;;;;;;;;;4.50;4.50;;;;;20.69;52.33;101269.13;110052;1253;18417;-42
2023/03/16 06:20:10;;;;;;;;;7.00;7.00;;;;;20.72;52.86;101268.73;110066;1266;20028;-40
2023/03/16 06:22:38;;;;;;;;;62.00;47.50;;;;;20.76;52.92;101268.17;110036;1266;21908;-40
2023/03/16 06:25:05;;;;;;;;;45.33;42.00;;;;;20.78;53.22;101266.85;110030;1266;18315;-40
2023/03/16 06:27:33;;;;;;;;;107.00;82.00;;;;;20.81;53.65;101273.05;110000;1266;20329;-39
2023/03/16 06:30:00;;;;;;;;;89.00;67.00;;;;;20.86;54.19;101275.77;110008;1253;20786;-40
2023/03/16 06:32:28;;;;;;;;;69.00;56.00;;;;;20.88;54.08;101279.73;109973;1266;19113;-39
2023/03/16 06:34:58;;;;;;;;;74.00;56.50;;;;;20.88;54.17;101286.14;109949;1254;20193;-39
2023/03/16 06:37:25;;;;;;;;;43.00;39.00;;;;;20.86;53.93;101289.45;109988;1266;22886;-40
2023/03/16 06:39:53;;;;;;;;;39.50;36.00;;;;;20.86;53.69;101294.33;110039;1266;18579;-40
2023/03/16 06:42:21;;;;;;;;;34.00;33.00;;;;;20.86;53.76;101285.95;110031;1266;18736;-40
2023/03/16 06:44:48;;;;;;;;;36.00;33.00;;;;;20.88;53.77;101292.33;110007;1250;19348;-41
2023/03/16 06:47:16;;;;;;;;;38.00;35.00;;;;;20.88;53.51;101288.14;109918;1253;20108;-40
2023/03/16 06:49:45;;;;;;;;;29.00;28.50;;;;;20.89;53.12;101283.14;109925;1259;18771;-41
2023/03/16 06:52:13;;;;;;;;;27.00;23.00;;;;;20.92;53.48;101283.29;109960;1253;21051;-39
2023/03/16 06:54:41;;;;;;;;;27.00;24.00;;;;;20.99;53.26;101283.11;109987;1266;20010;-40
2023/03/16 06:57:08;;;;;;;;;30.00;26.00;;;;;21.03;53.31;101283.52;110017;1266;18763;-40
2023/03/16 06:59:36;;;;;;;;;26.00;23.00;;;;;21.05;53.28;101286.42;110026;1266;19730;-40
2023/03/16 07:02:03;;;;;;;;;23.00;21.50;;;;;21.08;53.32;101289.16;110026;1250;20125;-40
2023/03/16 07:04:49;;;;;;;;;21.00;20.00;;;;;21.10;53.14;101293.02;110032;1266;20304;-40
2023/03/16 07:07:18;;;;;;;;;22.00;20.00;;;;;21.11;52.99;101294.23;110038;1254;21036;-41
2023/03/16 07:09:45;;;;;;;;;18.00;18.00;;;;;21.10;52.71;101294.08;110052;1266;19975;-40
2023/03/16 07:12:13;;;;;;;;;18.00;17.00;;;;;21.11;52.72;101301.08;110029;1266;21271;-40
2023/03/16 07:14:41;;;;;;;;;17.00;15.00;;;;;21.11;52.66;101295.81;110009;1266;23377;-40
2023/03/16 07:17:09;;;;;;;;;20.00;17.00;;;;;21.12;52.80;101299.51;109947;1266;19307;-40
2023/03/16 07:19:36;;;;;;;;;17.00;14.00;;;;;21.13;52.53;101292.02;110023;1266;18653;-39
2023/03/16 07:22:04;;;;;;;;;13.00;13.00;;;;;21.15;52.45;101291.39;109994;1266;20981;-40
2023/03/16 07:24:31;;;;;;;;;18.00;15.50;;;;;21.16;52.30;101301.64;110018;1266;18897;-40
2023/03/16 07:26:59;;;;;;;;;14.33;14.00;;;;;21.18;51.99;101305.83;109994;1252;21084;-40
2023/03/16 07:29:26;;;;;;;;;14.00;13.00;;;;;21.19;52.04;101309.30;110022;1260;19336;-40
2023/03/16 07:31:54;;;;;;;;;14.00;13.00;;;;;21.19;52.18;101308.77;110029;1250;21605;-40
2023/03/16 07:34:21;;;;;;;;;11.00;11.00;;;;;21.21;51.82;101310.48;110035;1266;20029;-41
2023/03/16 07:36:51;;;;;;;;;17.00;13.00;;;;;21.23;51.95;101312.35;110012;1266;22724;-40
2023/03/16 07:39:19;;;;;;;;;13.00;11.00;;;;;21.24;51.95;101315.11;109970;1260;18770;-39
2023/03/16 07:41:46;;;;;;;;;15.50;13.50;;;;;21.25;52.01;101316.48;109974;1250;18957;-39
2023/03/16 07:44:14;;;;;;;;;16.00;14.00;;;;;21.26;51.93;101311.59;109989;1254;20801;-40
2023/03/16 07:46:41;;;;;;;;;11.00;11.00;;;;;21.28;51.99;101313.82;109908;1266;19067;-44
2023/03/16 07:49:11;;;;;;;;;11.00;11.00;;;;;21.29;51.73;101311.30;109977;1266;20049;-40
2023/03/16 07:51:38;;;;;;;;;13.50;12.00;;;;;21.30;51.69;101308.27;110058;1266;20730;-39
2023/03/16 07:54:05;;;;;;;;;12.00;12.00;;;;;21.31;51.55;101308.75;110047;1266;21274;-39
2023/03/16 07:56:33;;;;;;;;;11.00;10.50;;;;;21.32;51.73;101310.76;110007;1266;18717;-40
2023/03/16 07:59:01;;;;;;;;;11.50;10.50;;;;;21.36;51.85;101314.55;110004;1253;22007;-41
2023/03/16 08:01:28;;;;;;;;;10.00;10.00;;;;;21.38;52.00;101314.66;109994;1266;18594;-40
2023/03/16 08:03:56;;;;;;;;;8.00;8.00;;;;;21.42;52.51;101316.10;109993;1250;18738;-41
2023/03/16 08:06:24;;;;;;;;;12.00;10.50;;;;;21.45;52.79;101313.27;110066;1266;19275;-39
2023/03/16 08:08:52;;;;;;;;;8.00;8.00;;;;;21.47;53.01;101319.55;110062;1266;18451;-41
2023/03/16 08:11:22;;;;;;;;;11.00;10.00;;;;;21.46;53.10;101320.54;110082;1266;18616;-40
2023/03/16 08:13:52;;;;;;;;;8.00;7.50;;;;;21.41;53.03;101318.15;110047;1266;22628;-40
2023/03/16 08:16:20;;;;;;;;;11.00;10.00;;;;;21.36;53.08;101317.23;110028;1252;21371;-40
2023/03/16 08:18:48;;;;;;;;;8.00;8.00;;;;;21.31;53.33;101319.32;110058;1266;22755;-40
2023/03/16 08:21:15;;;;;;;;;11.00;10.00;;;;;21.28;53.58;101323.17;110068;1250;21302;-40
2023/03/16 08:23:48;;;;;;;;;8.00;7.00;;;;;21.23;53.63;101323.56;110077;1266;19553;-40
2023/03/16 08:26:17;;;;;;;;;7.33;7.33;;;;;21.20;53.73;101328.08;109789;1266;383377;-39
2023/03/16 08:28:46;;;;;;;;;8.00;7.00;;;;;21.17;53.75;101327.66;110077;1266;20715;-40
2023/03/16 08:31:13;;;;;;;;;10.00;8.00;;;;;21.15;53.57;101328.50;110122;1266;18348;-40
2023/03/16 08:33:41;;;;;;;;;10.00;8.00;;;;;21.13;53.64;101330.55;110078;1250;18233;-40
2023/03/16 08:36:09;;;;;;;;;7.50;7.00;;;;;21.15;53.84;101328.13;110060;1250;19405;-40
2023/03/16 08:38:37;;;;;;;;;9.00;8.00;;;;;21.17;53.96;101327.73;110081;1266;18849;-40
2023/03/16 08:41:05;;;;;;;;;8.00;7.00;;;;;21.27;53.62;101331.02;110084;1266;18793;-40
2023/03/16 08:43:32;;;;;;;;;8.00;7.00;;;;;21.25;53.56;101331.88;110048;1266;19684;-40
2023/03/16 08:46:02;;;;;;;;;7.00;7.00;;;;;21.25;53.63;101330.45;110053;1266;19579;-40
2023/03/16 08:48:32;;;;;;;;;8.00;8.00;;;;;21.20;53.41;101331.01;110064;1266;20367;-40
2023/03/16 08:51:00;;;;;;;;;8.00;7.00;;;;;21.17;53.73;101328.61;110050;1266;19431;-39
2023/03/16 08:53:28;;;;;;;;;8.00;8.00;;;;;21.13;53.80;101335.55;110056;1265;18439;-40
2023/03/16 08:55:56;;;;;;;;;7.50;7.50;;;;;21.10;53.71;101337.88;110070;1266;18677;-40
2023/03/16 08:58:23;;;;;;;;;7.50;7.50;;;;;21.06;53.67;101338.42;109951;1250;19390;-40
2023/03/16 09:00:51;;;;;;;;;5.00;5.00;;;;;21.04;53.91;101342.46;110037;1250;22786;-40
2023/03/16 09:03:19;;;;;;;;;5.00;5.00;;;;;21.03;53.96;101335.02;110022;1266;19051;-40
2023/03/16 09:05:48;;;;;;;;;11.00;10.00;;;;;21.01;53.80;101333.22;110060;1266;19401;-39
2023/03/16 09:08:17;;;;;;;;;8.00;8.00;;;;;20.99;54.03;101338.19;110017;1266;18320;-40
2023/03/16 09:10:45;;;;;;;;;4.00;4.00;;;;;20.98;53.95;101344.98;110032;1266;19978;-41
2023/03/16 09:13:13;;;;;;;;;7.00;7.00;;;;;20.96;54.32;101340.15;110037;1266;22075;-39
2023/03/16 09:15:40;;;;;;;;;7.00;5.00;;;;;20.96;54.10;101344.69;109930;1266;20675;-39
2023/03/16 09:18:09;;;;;;;;;5.00;5.00;;;;;21.00;54.06;101351.85;109943;1266;18684;-38
2023/03/16 09:20:36;;;;;;;;;4.00;4.00;;;;;21.03;54.35;101354.20;110052;1266;19371;-40
2023/03/16 09:23:04;;;;;;;;;4.00;4.00;;;;;21.08;54.30;101354.07;110004;1266;19718;-39
2023/03/16 09:25:32;;;;;;;;;10.00;7.00;;;;;21.10;54.58;101357.66;110026;1266;18679;-41
2023/03/16 09:28:00;;;;;;;;;;;;;;;21.10;54.57;101356.40;110017;1266;23005;-39
2023/03/16 09:30:28;;;;;;;;;61.00;49.00;;;;;21.05;54.25;101359.61;110030;1266;20057;-39
2023/03/16 09:32:55;;;;;;;;;64.00;48.00;;;;;21.05;54.50;101361.30;110007;1266;19265;-39
2023/03/16 09:35:24;;;;;;;;;65.00;46.50;;;;;21.09;54.80;101358.36;110028;1250;19422;-39
2023/03/16 09:37:52;;;;;;;;;68.00;52.00;;;;;21.10;54.76;101362.41;110053;1266;18800;-39
2023/03/16 09:40:19;;;;;;;;;69.00;48.50;;;;;21.12;55.15;101362.91;110052;1266;18731;-40
2023/03/16 09:42:47;;;;;;;;;73.00;55.00;;;;;21.15;55.00;101362.30;109945;1266;19429;-41
2023/03/16 09:45:14;;;;;;;;;78.00;57.50;;;;;21.16;55.45;101362.67;110082;1266;18863;-40
2023/03/16 09:47:42;;;;;;;;;68.00;52.00;;;;;21.14;55.50;101360.42;110003;1266;18714;-41
2023/03/16 09:50:09;;;;;;;;;80.50;62.50;;;;;21.15;55.45;101360.98;110016;1266;21784;-40
2023/03/16 09:52:37;;;;;;;;;86.00;61.00;;;;;21.15;55.43;101366.48;110016;1266;23029;-39
2023/03/16 09:55:05;;;;;;;;;77.50;59.00;;;;;21.13;55.80;101366.80;109932;1266;20568;-39
2023/03/16 09:57:33;;;;;;;;;71.00;57.00;;;;;21.14;55.80;101366.36;109917;1266;19503;-39
2023/03/16 10:00:01;;;;;;;;;79.00;57.00;;;;;21.15;55.66;101365.46;109923;1266;18788;-38
2023/03/16 10:02:29;;;;;;;;;70.00;55.00;;;;;21.13;55.93;101372.63;109927;1250;22231;-38
2023/03/16 10:04:57;;;;;;;;;66.50;51.00;;;;;21.13;55.93;101376.34;110000;1266;19427;-39
2023/03/16 10:07:25;;;;;;;;;60.00;46.00;;;;;21.11;55.99;101376.13;109919;1266;21129;-38
2023/03/16 10:09:52;;;;;;;;;60.50;46.50;;;;;21.11;55.88;101378.83;110075;1266;18788;-38
2023/03/16 10:12:20;;;;;;;;;57.00;46.00;;;;;21.11;55.89;101377.02;110022;1266;22118;-39
2023/03/16 10:14:47;;;;;;;;;50.00;42.00;;;;;21.10;55.79;101386.98;110018;1266;18532;-39
2023/03/16 10:17:15;;;;;;;;;48.50;41.50;;;;;21.10;55.61;101380.55;110011;1266;18852;-38
2023/03/16 10:19:43;;;;;;;;;44.50;33.50;;;;;21.08;55.57;101385.69;110028;1266;20661;-39
2023/03/16 10:22:11;;;;;;;;;46.00;38.00;;;;;21.06;55.78;101386.09;109966;1263;19106;-39
2023/03/16 10:24:38;;;;;;;;;35.00;30.00;;;;;21.03;55.44;101394.76;110041;1266;21739;-40
2023/03/16 10:27:06;;;;;;;;;20.67;19.33;;;;;20.86;54.31;101391.27;110039;1266;19395;-42
2023/03/16 10:29:34;;;;;;;;;19.00;18.00;;;;;20.64;51.77;101392.15;110059;1266;18642;-38
2023/03/16 10:32:01;;;;;;;;;18.00;14.50;;;;;20.66;51.07;101392.95;110024;1266;19923;-40
2023/03/16 10:34:29;;;;;;;;;19.50;17.00;;;;;20.69;50.92;101397.67;110050;1266;19275;-39
2023/03/16 10:36:57;;;;;;;;;19.00;19.00;;;;;20.74;50.83;101400.99;110074;1266;18588;-39
2023/03/16 10:39:25;;;;;;;;;16.00;14.00;;;;;20.79;51.24;101399.98;110039;1250;18677;-39
2023/03/16 10:41:52;;;;;;;;;16.50;15.50;;;;;20.82;51.16;101401.73;109974;1266;22509;-39
2023/03/16 10:44:20;;;;;;;;;18.00;16.50;;;;;20.84;51.27;101400.99;109899;1266;18806;-38
2023/03/16 10:46:48;;;;;;;;;15.00;14.00;;;;;20.86;51.45;101406.45;110042;1266;18713;-39
2023/03/16 10:49:16;;;;;;;;;19.00;16.00;;;;;20.85;51.39;101405.75;110029;1250;23981;-39
2023/03/16 10:51:43;;;;;;;;;15.00;11.33;;;;;20.86;51.70;101411.69;110013;1255;20032;-39
2023/03/16 10:54:11;;;;;;;;;16.50;12.00;;;;;20.84;51.77;101416.02;110001;1260;18997;-39
2023/03/16 10:56:39;;;;;;;;;10.00;10.00;;;;;20.84;51.91;101415.73;110020;1260;22361;-38
2023/03/16 10:59:07;;;;;;;;;10.00;8.00;;;;;20.82;51.97;101418.21;110006;1266;19965;-38
2023/03/16 11:01:34;;;;;;;;;16.00;11.00;;;;;20.82;52.19;101419.76;110018;1250;18576;-39
2023/03/16 11:04:02;;;;;;;;;11.00;10.00;;;;;20.82;52.02;101424.14;110023;1266;19644;-38
2023/03/16 11:06:30;;;;;;;;;17.00;11.00;;;;;20.80;51.98;101426.23;110003;1266;18674;-42
2023/03/16 11:08:57;;;;;;;;;10.50;10.00;;;;;20.80;52.19;101429.84;110054;1266;18924;-38
2023/03/16 11:11:26;;;;;;;;;8.00;7.50;;;;;20.79;52.36;101426.54;110047;1250;19694;-38
2023/03/16 11:13:53;;;;;;;;;13.00;8.00;;;;;20.79;52.36;101429.26;110048;1250;21903;-38